sensor_id;sensor_type;location;lat;lon;timestamp;pressure;altitude;pressure_sealevel;temperature;humidity
8298;BME280;4187;42.778;23.242;2022-07-29T00:01:26;95465.28;;;20.15;100.00
8298;BME280;4187;42.778;23.242;2022-07-29T00:03:54;95469.81;;;20.08;100.00
8298;BME280;4187;42.778;23.242;2022-07-29T00:06:21;95475.50;;;19.98;100.00
8298;BME280;4187;42.778;23.242;2022-07-29T00:08:48;95486.78;;;19.87;100.00
8298;BME280;4187;42.778;23.242;2022-07-29T00:11:14;95486.50;;;19.76;100.00
8298;BME280;4187;42.778;23.242;2022-07-29T00:13:41;95477.81;;;19.67;100.00
8298;BME280;4187;42.778;23.242;2022-07-29T00:16:08;95478.56;;;19.61;100.00
8298;BME280;4187;42.778;23.242;2022-07-29T00:18:35;95474.81;;;19.55;100.00
8298;BME280;4187;42.778;23.242;2022-07-29T00:21:03;95467.72;;;19.41;100.00
8298;BME280;4187;42.778;23.242;2022-07-29T00:23:30;95470.13;;;19.36;100.00
8298;BME280;4187;42.778;23.242;2022-07-29T00:25:57;95469.97;;;19.38;100.00
8298;BME280;4187;42.778;23.242;2022-07-29T00:28:23;95472.16;;;19.34;100.00
8298;BME280;4187;42.778;23.242;2022-07-29T00:30:50;95470.72;;;19.32;100.00
8298;BME280;4187;42.778;23.242;2022-07-29T00:33:17;95477.72;;;19.33;100.00
8298;BME280;4187;42.778;23.242;2022-07-29T00:35:44;95482.50;;;19.37;100.00
8298;BME280;4187;42.778;23.242;2022-07-29T00:38:12;95488.84;;;19.36;100.00
8298;BME280;4187;42.778;23.242;2022-07-29T00:40:39;95478.34;;;19.35;100.00
8298;BME280;4187;42.778;23.242;2022-07-29T00:43:07;95453.81;;;19.31;100.00
8298;BME280;4187;42.778;23.242;2022-07-29T00:45:34;95461.25;;;19.36;100.00
8298;BME280;4187;42.778;23.242;2022-07-29T00:48:01;95458.22;;;19.39;100.00
8298;BME280;4187;42.778;23.242;2022-07-29T00:50:29;95457.56;;;19.37;100.00
8298;BME280;4187;42.778;23.242;2022-07-29T00:52:57;95457.72;;;19.29;100.00
8298;BME280;4187;42.778;23.242;2022-07-29T00:55:26;95460.50;;;19.42;100.00
8298;BME280;4187;42.778;23.242;2022-07-29T00:57:53;95454.53;;;19.40;100.00
8298;BME280;4187;42.778;23.242;2022-07-29T01:00:24;95453.94;;;19.44;100.00
8298;BME280;4187;42.778;23.242;2022-07-29T01:02:51;95455.41;;;19.47;100.00
8298;BME280;4187;42.778;23.242;2022-07-29T01:05:19;95447.38;;;19.47;100.00
8298;BME280;4187;42.778;23.242;2022-07-29T01:07:49;95443.00;;;19.39;100.00
8298;BME280;4187;42.778;23.242;2022-07-29T01:10:18;95446.88;;;19.37;100.00
8298;BME280;4187;42.778;23.242;2022-07-29T01:12:49;95446.41;;;19.33;100.00
8298;BME280;4187;42.778;23.242;2022-07-29T01:15:16;95436.75;;;19.32;100.00
8298;BME280;4187;42.778;23.242;2022-07-29T01:17:48;95438.00;;;19.36;100.00
8298;BME280;4187;42.778;23.242;2022-07-29T01:20:25;95436.25;;;19.43;100.00
8298;BME280;4187;42.778;23.242;2022-07-29T01:23:22;95429.84;;;19.44;100.00
8298;BME280;4187;42.778;23.242;2022-07-29T01:26:00;95412.97;;;19.44;100.00
8298;BME280;4187;42.778;23.242;2022-07-29T01:31:43;95426.63;;;19.49;100.00
8298;BME280;4187;42.778;23.242;2022-07-29T01:34:17;95429.22;;;19.42;100.00
8298;BME280;4187;42.778;23.242;2022-07-29T01:36:48;95422.31;;;19.33;100.00
8298;BME280;4187;42.778;23.242;2022-07-29T01:39:19;95419.47;;;19.35;100.00
8298;BME280;4187;42.778;23.242;2022-07-29T01:42:05;95423.31;;;19.26;100.00
8298;BME280;4187;42.778;23.242;2022-07-29T01:44:36;95414.81;;;19.16;100.00
8298;BME280;4187;42.778;23.242;2022-07-29T01:47:11;95419.69;;;19.12;100.00
8298;BME280;4187;42.778;23.242;2022-07-29T01:49:43;95417.38;;;18.60;100.00
8298;BME280;4187;42.778;23.242;2022-07-29T01:52:16;95424.19;;;18.27;100.00
8298;BME280;4187;42.778;23.242;2022-07-29T01:54:50;95418.09;;;17.97;100.00
8298;BME280;4187;42.778;23.242;2022-07-29T01:57:21;95432.38;;;17.89;100.00
8298;BME280;4187;42.778;23.242;2022-07-29T01:59:52;95429.25;;;17.86;100.00
8298;BME280;4187;42.778;23.242;2022-07-29T02:02:21;95429.59;;;17.83;100.00
8298;BME280;4187;42.778;23.242;2022-07-29T02:04:50;95428.97;;;17.81;100.00
8298;BME280;4187;42.778;23.242;2022-07-29T02:07:21;95407.34;;;17.76;100.00
8298;BME280;4187;42.778;23.242;2022-07-29T02:09:49;95422.97;;;17.93;100.00
8298;BME280;4187;42.778;23.242;2022-07-29T02:12:18;95416.53;;;18.03;100.00
8298;BME280;4187;42.778;23.242;2022-07-29T02:14:47;95415.84;;;18.15;100.00
8298;BME280;4187;42.778;23.242;2022-07-29T02:17:19;95410.59;;;18.22;100.00
8298;BME280;4187;42.778;23.242;2022-07-29T02:19:49;95410.84;;;18.27;100.00
8298;BME280;4187;42.778;23.242;2022-07-29T02:22:18;95412.09;;;18.31;100.00
8298;BME280;4187;42.778;23.242;2022-07-29T02:24:46;95406.13;;;18.29;100.00
8298;BME280;4187;42.778;23.242;2022-07-29T02:27:14;95407.00;;;18.36;100.00
8298;BME280;4187;42.778;23.242;2022-07-29T02:29:42;95404.63;;;18.41;100.00
8298;BME280;4187;42.778;23.242;2022-07-29T02:32:11;95388.31;;;18.36;100.00
8298;BME280;4187;42.778;23.242;2022-07-29T02:34:40;95400.91;;;18.57;100.00
8298;BME280;4187;42.778;23.242;2022-07-29T02:37:10;95387.34;;;18.58;100.00
8298;BME280;4187;42.778;23.242;2022-07-29T02:39:41;95401.91;;;18.77;100.00
8298;BME280;4187;42.778;23.242;2022-07-29T02:42:12;95398.41;;;18.76;100.00
8298;BME280;4187;42.778;23.242;2022-07-29T02:44:41;95401.66;;;18.72;100.00
8298;BME280;4187;42.778;23.242;2022-07-29T02:47:20;95400.19;;;18.69;100.00
8298;BME280;4187;42.778;23.242;2022-07-29T02:49:53;95397.91;;;18.66;100.00
8298;BME280;4187;42.778;23.242;2022-07-29T02:52:27;95397.44;;;18.63;100.00
8298;BME280;4187;42.778;23.242;2022-07-29T02:54:57;95410.50;;;18.72;100.00
8298;BME280;4187;42.778;23.242;2022-07-29T02:57:32;95408.72;;;18.79;100.00
8298;BME280;4187;42.778;23.242;2022-07-29T03:00:02;95402.44;;;18.87;100.00
8298;BME280;4187;42.778;23.242;2022-07-29T03:02:33;95406.38;;;18.91;100.00
8298;BME280;4187;42.778;23.242;2022-07-29T03:05:01;95407.81;;;18.93;100.00
8298;BME280;4187;42.778;23.242;2022-07-29T03:07:30;95404.53;;;18.91;100.00
8298;BME280;4187;42.778;23.242;2022-07-29T03:09:58;95410.13;;;18.96;100.00
8298;BME280;4187;42.778;23.242;2022-07-29T03:12:26;95411.31;;;18.94;100.00
8298;BME280;4187;42.778;23.242;2022-07-29T03:14:54;95407.00;;;18.93;100.00
8298;BME280;4187;42.778;23.242;2022-07-29T03:17:22;95408.28;;;18.97;100.00
8298;BME280;4187;42.778;23.242;2022-07-29T03:19:50;95392.03;;;18.98;100.00
8298;BME280;4187;42.778;23.242;2022-07-29T03:22:17;95404.00;;;19.02;100.00
8298;BME280;4187;42.778;23.242;2022-07-29T03:24:45;95404.63;;;19.04;100.00
8298;BME280;4187;42.778;23.242;2022-07-29T03:27:12;95408.31;;;19.03;100.00
8298;BME280;4187;42.778;23.242;2022-07-29T03:29:39;95401.94;;;19.04;100.00
8298;BME280;4187;42.778;23.242;2022-07-29T03:32:06;95401.13;;;19.04;100.00
8298;BME280;4187;42.778;23.242;2022-07-29T03:34:33;95408.63;;;19.15;100.00
8298;BME280;4187;42.778;23.242;2022-07-29T03:37:00;95403.09;;;19.17;100.00
8298;BME280;4187;42.778;23.242;2022-07-29T03:39:30;95409.47;;;19.22;100.00
8298;BME280;4187;42.778;23.242;2022-07-29T03:42:00;95410.75;;;19.26;100.00
8298;BME280;4187;42.778;23.242;2022-07-29T03:44:28;95413.22;;;19.28;100.00
8298;BME280;4187;42.778;23.242;2022-07-29T03:46:58;95416.66;;;19.15;100.00
8298;BME280;4187;42.778;23.242;2022-07-29T03:49:27;95419.09;;;18.89;100.00
8298;BME280;4187;42.778;23.242;2022-07-29T03:51:54;95420.38;;;18.72;100.00
8298;BME280;4187;42.778;23.242;2022-07-29T03:54:22;95425.81;;;18.57;100.00
8298;BME280;4187;42.778;23.242;2022-07-29T03:56:50;95416.97;;;18.42;100.00
8298;BME280;4187;42.778;23.242;2022-07-29T03:59:21;95421.16;;;18.30;100.00
8298;BME280;4187;42.778;23.242;2022-07-29T04:01:49;95419.84;;;18.26;100.00
8298;BME280;4187;42.778;23.242;2022-07-29T04:04:17;95420.22;;;18.23;100.00
8298;BME280;4187;42.778;23.242;2022-07-29T04:06:46;95421.59;;;18.33;100.00
8298;BME280;4187;42.778;23.242;2022-07-29T04:09:12;95418.53;;;18.36;100.00
8298;BME280;4187;42.778;23.242;2022-07-29T04:11:40;95423.13;;;18.42;100.00
8298;BME280;4187;42.778;23.242;2022-07-29T04:32:03;95430.25;;;19.20;100.00
8298;BME280;4187;42.778;23.242;2022-07-29T04:34:30;95434.50;;;19.36;100.00
8298;BME280;4187;42.778;23.242;2022-07-29T04:36:57;95430.53;;;19.53;100.00
8298;BME280;4187;42.778;23.242;2022-07-29T04:39:24;95435.34;;;19.64;100.00
8298;BME280;4187;42.778;23.242;2022-07-29T04:41:51;95442.16;;;19.66;100.00
8298;BME280;4187;42.778;23.242;2022-07-29T04:44:18;95437.47;;;19.75;100.00
8298;BME280;4187;42.778;23.242;2022-07-29T04:46:45;95449.25;;;19.81;100.00
8298;BME280;4187;42.778;23.242;2022-07-29T04:49:14;95452.56;;;19.83;100.00
8298;BME280;4187;42.778;23.242;2022-07-29T04:51:40;95456.91;;;19.84;100.00
8298;BME280;4187;42.778;23.242;2022-07-29T04:54:07;95456.75;;;19.92;100.00
8298;BME280;4187;42.778;23.242;2022-07-29T04:56:34;95447.09;;;19.97;100.00
8298;BME280;4187;42.778;23.242;2022-07-29T04:59:01;95445.84;;;20.00;100.00
8298;BME280;4187;42.778;23.242;2022-07-29T05:01:28;95452.72;;;20.15;100.00
8298;BME280;4187;42.778;23.242;2022-07-29T05:03:55;95446.59;;;20.21;100.00
8298;BME280;4187;42.778;23.242;2022-07-29T05:06:23;95446.38;;;20.23;100.00
8298;BME280;4187;42.778;23.242;2022-07-29T05:08:50;95456.31;;;20.29;100.00
8298;BME280;4187;42.778;23.242;2022-07-29T05:11:16;95452.41;;;20.32;100.00
8298;BME280;4187;42.778;23.242;2022-07-29T05:13:43;95451.00;;;20.36;100.00
8298;BME280;4187;42.778;23.242;2022-07-29T05:16:10;95442.78;;;20.44;100.00
8298;BME280;4187;42.778;23.242;2022-07-29T05:18:37;95453.13;;;20.53;100.00
8298;BME280;4187;42.778;23.242;2022-07-29T05:21:04;95441.38;;;20.54;100.00
8298;BME280;4187;42.778;23.242;2022-07-29T05:23:33;95450.69;;;20.65;100.00
8298;BME280;4187;42.778;23.242;2022-07-29T05:25:59;95457.28;;;20.69;100.00
8298;BME280;4187;42.778;23.242;2022-07-29T05:28:26;95468.44;;;20.79;100.00
8298;BME280;4187;42.778;23.242;2022-07-29T05:30:53;95465.34;;;20.82;100.00
8298;BME280;4187;42.778;23.242;2022-07-29T05:33:20;95467.44;;;20.86;100.00
8298;BME280;4187;42.778;23.242;2022-07-29T05:35:46;95475.69;;;20.92;100.00
8298;BME280;4187;42.778;23.242;2022-07-29T05:38:13;95471.34;;;20.91;100.00
8298;BME280;4187;42.778;23.242;2022-07-29T05:40:41;95470.72;;;20.95;100.00
8298;BME280;4187;42.778;23.242;2022-07-29T05:43:08;95474.66;;;20.93;100.00
8298;BME280;4187;42.778;23.242;2022-07-29T05:45:35;95474.06;;;20.97;100.00
8298;BME280;4187;42.778;23.242;2022-07-29T05:48:02;95477.63;;;21.11;100.00
8298;BME280;4187;42.778;23.242;2022-07-29T05:50:29;95480.13;;;21.19;100.00
8298;BME280;4187;42.778;23.242;2022-07-29T05:52:56;95484.44;;;21.26;100.00
8298;BME280;4187;42.778;23.242;2022-07-29T05:55:23;95483.81;;;21.31;100.00
8298;BME280;4187;42.778;23.242;2022-07-29T05:57:51;95477.63;;;21.37;100.00
8298;BME280;4187;42.778;23.242;2022-07-29T06:00:18;95479.09;;;21.46;100.00
8298;BME280;4187;42.778;23.242;2022-07-29T06:02:45;95487.97;;;21.53;100.00
8298;BME280;4187;42.778;23.242;2022-07-29T06:05:12;95482.19;;;21.63;100.00
8298;BME280;4187;42.778;23.242;2022-07-29T06:07:39;95482.56;;;21.79;100.00
8298;BME280;4187;42.778;23.242;2022-07-29T06:10:06;95486.72;;;21.95;100.00
8298;BME280;4187;42.778;23.242;2022-07-29T06:12:33;95485.88;;;22.08;100.00
8298;BME280;4187;42.778;23.242;2022-07-29T06:15:02;95486.84;;;22.26;100.00
8298;BME280;4187;42.778;23.242;2022-07-29T06:17:29;95490.31;;;22.40;100.00
8298;BME280;4187;42.778;23.242;2022-07-29T06:19:56;95480.75;;;22.50;100.00
8298;BME280;4187;42.778;23.242;2022-07-29T06:22:24;95460.91;;;22.51;100.00
8298;BME280;4187;42.778;23.242;2022-07-29T06:24:51;95466.00;;;22.73;100.00
8298;BME280;4187;42.778;23.242;2022-07-29T06:27:18;95458.75;;;22.73;100.00
8298;BME280;4187;42.778;23.242;2022-07-29T06:29:47;95464.06;;;22.86;100.00
8298;BME280;4187;42.778;23.242;2022-07-29T06:32:15;95482.78;;;23.06;100.00
8298;BME280;4187;42.778;23.242;2022-07-29T06:34:44;95491.22;;;23.09;100.00
8298;BME280;4187;42.778;23.242;2022-07-29T06:37:13;95447.94;;;22.80;100.00
8298;BME280;4187;42.778;23.242;2022-07-29T06:39:40;95486.66;;;23.16;100.00
8298;BME280;4187;42.778;23.242;2022-07-29T06:42:08;95482.28;;;23.15;100.00
8298;BME280;4187;42.778;23.242;2022-07-29T06:44:35;95487.31;;;23.37;100.00
8298;BME280;4187;42.778;23.242;2022-07-29T06:47:02;95492.16;;;23.59;100.00
8298;BME280;4187;42.778;23.242;2022-07-29T06:49:33;95490.22;;;23.66;100.00
8298;BME280;4187;42.778;23.242;2022-07-29T06:52:00;95494.91;;;23.77;100.00
8298;BME280;4187;42.778;23.242;2022-07-29T06:54:27;95487.91;;;23.95;100.00
8298;BME280;4187;42.778;23.242;2022-07-29T06:56:54;95484.88;;;24.09;100.00
8298;BME280;4187;42.778;23.242;2022-07-29T06:59:21;95491.72;;;24.30;100.00
8298;BME280;4187;42.778;23.242;2022-07-29T07:01:48;95483.38;;;24.50;100.00
8298;BME280;4187;42.778;23.242;2022-07-29T07:04:15;95464.03;;;24.53;100.00
8298;BME280;4187;42.778;23.242;2022-07-29T07:06:43;95473.06;;;24.76;100.00
8298;BME280;4187;42.778;23.242;2022-07-29T07:09:10;95484.59;;;25.02;100.00
8298;BME280;4187;42.778;23.242;2022-07-29T07:11:37;95475.41;;;25.21;100.00
8298;BME280;4187;42.778;23.242;2022-07-29T07:14:04;95481.50;;;25.28;100.00
8298;BME280;4187;42.778;23.242;2022-07-29T07:16:31;95483.75;;;25.31;100.00
8298;BME280;4187;42.778;23.242;2022-07-29T07:19:00;95466.97;;;25.29;100.00
8298;BME280;4187;42.778;23.242;2022-07-29T07:21:27;95483.63;;;25.55;100.00
8298;BME280;4187;42.778;23.242;2022-07-29T07:23:55;95482.94;;;25.72;100.00
8298;BME280;4187;42.778;23.242;2022-07-29T07:26:22;95484.72;;;25.89;100.00
8298;BME280;4187;42.778;23.242;2022-07-29T07:28:49;95486.41;;;26.13;100.00
8298;BME280;4187;42.778;23.242;2022-07-29T07:31:16;95483.09;;;26.23;100.00
8298;BME280;4187;42.778;23.242;2022-07-29T07:33:43;95484.75;;;26.36;100.00
8298;BME280;4187;42.778;23.242;2022-07-29T07:36:10;95483.41;;;26.50;100.00
8298;BME280;4187;42.778;23.242;2022-07-29T07:38:36;95478.97;;;26.44;87.63
8298;BME280;4187;42.778;23.242;2022-07-29T07:41:05;95445.94;;;26.19;88.66
8298;BME280;4187;42.778;23.242;2022-07-29T07:43:32;95472.47;;;26.45;92.79
8298;BME280;4187;42.778;23.242;2022-07-29T07:45:58;95466.22;;;26.44;85.68
8298;BME280;4187;42.778;23.242;2022-07-29T07:48:25;95470.22;;;26.42;86.12
8298;BME280;4187;42.778;23.242;2022-07-29T07:50:52;95465.28;;;26.50;87.90
8298;BME280;4187;42.778;23.242;2022-07-29T07:53:19;95470.19;;;26.65;84.76
8298;BME280;4187;42.778;23.242;2022-07-29T07:55:46;95457.44;;;26.77;85.94
8298;BME280;4187;42.778;23.242;2022-07-29T07:58:14;95457.59;;;26.99;86.98
8298;BME280;4187;42.778;23.242;2022-07-29T08:00:41;95456.31;;;27.01;83.70
8298;BME280;4187;42.778;23.242;2022-07-29T08:03:07;95456.31;;;27.01;85.67
8298;BME280;4187;42.778;23.242;2022-07-29T08:05:38;95454.19;;;27.03;84.99
8298;BME280;4187;42.778;23.242;2022-07-29T08:08:05;95448.88;;;27.08;85.92
8298;BME280;4187;42.778;23.242;2022-07-29T08:10:32;95452.59;;;27.19;87.57
8298;BME280;4187;42.778;23.242;2022-07-29T08:13:19;95456.25;;;27.41;84.46
8298;BME280;4187;42.778;23.242;2022-07-29T08:15:46;95452.00;;;27.62;85.18
8298;BME280;4187;42.778;23.242;2022-07-29T08:18:13;95464.47;;;27.79;82.02
8298;BME280;4187;42.778;23.242;2022-07-29T08:20:40;95465.44;;;27.90;81.56
8298;BME280;4187;42.778;23.242;2022-07-29T08:23:07;95463.16;;;27.82;79.99
8298;BME280;4187;42.778;23.242;2022-07-29T08:25:35;95464.09;;;27.71;78.05
8298;BME280;4187;42.778;23.242;2022-07-29T08:28:04;95443.44;;;27.70;81.73
8298;BME280;4187;42.778;23.242;2022-07-29T08:30:32;95462.75;;;28.07;80.29
8298;BME280;4187;42.778;23.242;2022-07-29T08:32:59;95406.19;;;27.82;78.97
8298;BME280;4187;42.778;23.242;2022-07-29T08:35:26;95449.22;;;28.28;78.13
8298;BME280;4187;42.778;23.242;2022-07-29T08:37:53;95399.53;;;28.06;78.01
8298;BME280;4187;42.778;23.242;2022-07-29T08:40:22;95458.31;;;28.39;77.21
8298;BME280;4187;42.778;23.242;2022-07-29T08:42:50;95450.81;;;28.63;82.53
8298;BME280;4187;42.778;23.242;2022-07-29T08:45:17;95457.19;;;28.73;75.68
8298;BME280;4187;42.778;23.242;2022-07-29T08:47:45;95459.47;;;28.81;75.66
8298;BME280;4187;42.778;23.242;2022-07-29T08:50:12;95455.78;;;28.92;78.82
8298;BME280;4187;42.778;23.242;2022-07-29T08:52:41;95446.41;;;29.05;73.21
8298;BME280;4187;42.778;23.242;2022-07-29T08:55:09;95444.69;;;28.99;74.25
8298;BME280;4187;42.778;23.242;2022-07-29T08:57:38;95433.50;;;28.95;74.28
8298;BME280;4187;42.778;23.242;2022-07-29T09:00:07;95411.13;;;28.83;72.79
8298;BME280;4187;42.778;23.242;2022-07-29T09:02:39;95438.78;;;28.80;74.48
8298;BME280;4187;42.778;23.242;2022-07-29T09:05:08;95412.06;;;28.72;77.24
8298;BME280;4187;42.778;23.242;2022-07-29T09:07:39;95430.97;;;29.11;76.72
8298;BME280;4187;42.778;23.242;2022-07-29T09:10:08;95435.97;;;29.45;74.16
8298;BME280;4187;42.778;23.242;2022-07-29T09:12:35;95393.69;;;29.28;70.99
8298;BME280;4187;42.778;23.242;2022-07-29T09:15:03;95446.78;;;29.40;69.45
8298;BME280;4187;42.778;23.242;2022-07-29T09:17:39;95437.47;;;29.10;70.62
8298;BME280;4187;42.778;23.242;2022-07-29T09:20:13;95444.34;;;29.17;73.48
8298;BME280;4187;42.778;23.242;2022-07-29T09:22:40;95422.53;;;29.34;72.88
8298;BME280;4187;42.778;23.242;2022-07-29T09:25:08;95435.75;;;29.52;72.45
8298;BME280;4187;42.778;23.242;2022-07-29T09:27:38;95439.13;;;29.64;69.46
8298;BME280;4187;42.778;23.242;2022-07-29T09:30:07;95428.78;;;29.66;71.78
8298;BME280;4187;42.778;23.242;2022-07-29T09:32:54;95431.00;;;29.69;68.03
8298;BME280;4187;42.778;23.242;2022-07-29T09:35:25;95440.31;;;29.78;71.10
8298;BME280;4187;42.778;23.242;2022-07-29T09:37:53;95439.72;;;30.03;70.79
8298;BME280;4187;42.778;23.242;2022-07-29T09:40:22;95443.38;;;30.23;71.27
8298;BME280;4187;42.778;23.242;2022-07-29T09:42:52;95433.06;;;30.31;69.12
8298;BME280;4187;42.778;23.242;2022-07-29T09:45:29;95431.84;;;30.48;68.89
8298;BME280;4187;42.778;23.242;2022-07-29T09:47:58;95412.03;;;30.16;65.47
8298;BME280;4187;42.778;23.242;2022-07-29T09:50:40;95423.97;;;30.10;67.90
8298;BME280;4187;42.778;23.242;2022-07-29T09:53:07;95413.06;;;30.05;66.84
8298;BME280;4187;42.778;23.242;2022-07-29T09:55:46;95418.53;;;30.10;66.89
8298;BME280;4187;42.778;23.242;2022-07-29T09:58:17;95412.56;;;30.13;65.58
8298;BME280;4187;42.778;23.242;2022-07-29T10:00:47;95411.00;;;30.22;67.83
8298;BME280;4187;42.778;23.242;2022-07-29T10:03:16;95396.66;;;30.42;67.72
8298;BME280;4187;42.778;23.242;2022-07-29T10:05:45;95403.06;;;30.67;67.16
8298;BME280;4187;42.778;23.242;2022-07-29T10:08:12;95383.44;;;30.65;61.12
8298;BME280;4187;42.778;23.242;2022-07-29T10:10:41;95386.00;;;30.97;66.09
8298;BME280;4187;42.778;23.242;2022-07-29T10:13:12;95393.41;;;31.27;63.16
8298;BME280;4187;42.778;23.242;2022-07-29T10:15:41;95372.69;;;31.16;61.67
8298;BME280;4187;42.778;23.242;2022-07-29T10:18:10;95382.25;;;31.38;61.64
8298;BME280;4187;42.778;23.242;2022-07-29T10:20:38;95381.19;;;31.65;61.82
8298;BME280;4187;42.778;23.242;2022-07-29T10:23:06;95381.72;;;31.72;60.94
8298;BME280;4187;42.778;23.242;2022-07-29T10:25:34;95383.34;;;31.73;59.67
8298;BME280;4187;42.778;23.242;2022-07-29T10:28:01;95381.72;;;31.72;59.60
8298;BME280;4187;42.778;23.242;2022-07-29T10:30:28;95370.50;;;31.83;59.47
8298;BME280;4187;42.778;23.242;2022-07-29T10:33:05;95358.50;;;31.74;60.76
8298;BME280;4187;42.778;23.242;2022-07-29T10:35:57;95330.16;;;31.25;59.43
8298;BME280;4187;42.778;23.242;2022-07-29T10:38:42;95349.25;;;31.30;59.55
8298;BME280;4187;42.778;23.242;2022-07-29T10:41:26;95364.25;;;31.68;58.86
8298;BME280;4187;42.778;23.242;2022-07-29T10:44:00;95358.22;;;32.06;58.29
8298;BME280;4187;42.778;23.242;2022-07-29T10:46:28;95358.75;;;32.13;55.12
8298;BME280;4187;42.778;23.242;2022-07-29T10:49:06;95345.38;;;31.96;60.32
8298;BME280;4187;42.778;23.242;2022-07-29T10:52:02;95348.09;;;31.96;56.44
8298;BME280;4187;42.778;23.242;2022-07-29T10:54:48;95348.66;;;31.88;58.06
8298;BME280;4187;42.778;23.242;2022-07-29T10:57:20;95293.84;;;31.70;56.35
8298;BME280;4187;42.778;23.242;2022-07-29T10:59:49;95311.81;;;32.06;59.85
8298;BME280;4187;42.778;23.242;2022-07-29T11:02:45;95340.66;;;32.32;54.59
8298;BME280;4187;42.778;23.242;2022-07-29T11:05:17;95341.97;;;32.40;54.53
8298;BME280;4187;42.778;23.242;2022-07-29T11:08:21;95332.59;;;32.66;56.35
8298;BME280;4187;42.778;23.242;2022-07-29T11:13:50;95296.88;;;32.58;56.56
8298;BME280;4187;42.778;23.242;2022-07-29T11:16:20;95282.63;;;32.61;54.03
8298;BME280;4187;42.778;23.242;2022-07-29T11:19:19;95319.53;;;32.58;52.59
8298;BME280;4187;42.778;23.242;2022-07-29T11:21:47;95311.03;;;32.65;54.06
8298;BME280;4187;42.778;23.242;2022-07-29T11:24:20;95314.34;;;33.00;56.96
8298;BME280;4187;42.778;23.242;2022-07-29T11:27:10;95297.00;;;32.81;53.10
8298;BME280;4187;42.778;23.242;2022-07-29T11:29:40;95231.50;;;32.61;52.78
8298;BME280;4187;42.778;23.242;2022-07-29T11:32:14;95317.31;;;33.04;50.42
8298;BME280;4187;42.778;23.242;2022-07-29T11:35:13;95325.22;;;32.67;52.13
8298;BME280;4187;42.778;23.242;2022-07-29T11:37:46;95301.56;;;32.37;51.57
8298;BME280;4187;42.778;23.242;2022-07-29T11:40:17;95318.94;;;32.66;52.59
8298;BME280;4187;42.778;23.242;2022-07-29T11:42:50;95305.63;;;32.93;54.29
8298;BME280;4187;42.778;23.242;2022-07-29T11:45:20;95316.78;;;33.02;51.21
8298;BME280;4187;42.778;23.242;2022-07-29T11:47:55;95306.69;;;33.02;53.80
8298;BME280;4187;42.778;23.242;2022-07-29T11:50:34;95283.09;;;33.17;53.01
8298;BME280;4187;42.778;23.242;2022-07-29T11:53:10;95301.47;;;33.40;51.23
8298;BME280;4187;42.778;23.242;2022-07-29T11:55:39;95210.44;;;33.05;52.52
8298;BME280;4187;42.778;23.242;2022-07-29T11:58:10;95300.56;;;33.83;53.34
8298;BME280;4187;42.778;23.242;2022-07-29T12:00:39;95295.19;;;33.97;49.89
8298;BME280;4187;42.778;23.242;2022-07-29T12:03:09;95225.88;;;33.49;51.45
8298;BME280;4187;42.778;23.242;2022-07-29T12:05:38;95303.03;;;33.85;49.92
8298;BME280;4187;42.778;23.242;2022-07-29T12:08:10;95307.81;;;33.98;54.33
8298;BME280;4187;42.778;23.242;2022-07-29T12:10:39;95281.31;;;33.88;51.02
8298;BME280;4187;42.778;23.242;2022-07-29T12:13:07;95130.34;;;33.00;49.50
8298;BME280;4187;42.778;23.242;2022-07-29T12:15:36;95291.13;;;33.94;50.58
8298;BME280;4187;42.778;23.242;2022-07-29T12:18:11;95290.59;;;33.92;49.14
8298;BME280;4187;42.778;23.242;2022-07-29T12:20:39;95297.81;;;33.83;49.93
8298;BME280;4187;42.778;23.242;2022-07-29T12:23:07;95291.53;;;34.11;52.91
8298;BME280;4187;42.778;23.242;2022-07-29T12:25:40;95119.38;;;33.05;48.63
8298;BME280;4187;42.778;23.242;2022-07-29T12:28:09;95239.28;;;33.79;50.01
8298;BME280;4187;42.778;23.242;2022-07-29T12:30:44;95161.63;;;33.46;50.58
8298;BME280;4187;42.778;23.242;2022-07-29T12:33:15;95254.72;;;34.17;48.41
8298;BME280;4187;42.778;23.242;2022-07-29T12:35:43;95252.91;;;34.32;49.32
8298;BME280;4187;42.778;23.242;2022-07-29T12:38:11;95255.63;;;34.32;50.86
8298;BME280;4187;42.778;23.242;2022-07-29T12:40:42;95267.97;;;34.10;47.49
8298;BME280;4187;42.778;23.242;2022-07-29T12:43:12;95265.38;;;33.95;48.24
8298;BME280;4187;42.778;23.242;2022-07-29T12:45:40;95238.16;;;33.80;49.81
8298;BME280;4187;42.778;23.242;2022-07-29T12:48:09;95124.41;;;33.22;50.14
8298;BME280;4187;42.778;23.242;2022-07-29T12:50:51;95263.28;;;34.35;48.92
8298;BME280;4187;42.778;23.242;2022-07-29T12:53:19;95253.97;;;34.36;48.06
8298;BME280;4187;42.778;23.242;2022-07-29T12:55:48;95249.91;;;34.52;48.99
8298;BME280;4187;42.778;23.242;2022-07-29T12:58:30;95241.63;;;34.57;47.10
8298;BME280;4187;42.778;23.242;2022-07-29T13:01:02;95241.41;;;34.72;48.86
8298;BME280;4187;42.778;23.242;2022-07-29T13:03:44;95245.63;;;34.83;46.96
8298;BME280;4187;42.778;23.242;2022-07-29T13:06:31;95237.22;;;34.93;49.74
8298;BME280;4187;42.778;23.242;2022-07-29T13:09:00;95238.19;;;35.02;47.70
8298;BME280;4187;42.778;23.242;2022-07-29T13:11:28;95237.84;;;34.90;44.80
8298;BME280;4187;42.778;23.242;2022-07-29T13:13:55;95240.69;;;34.43;44.41
8298;BME280;4187;42.778;23.242;2022-07-29T13:16:22;95230.19;;;34.07;45.45
8298;BME280;4187;42.778;23.242;2022-07-29T13:19:03;95231.31;;;34.01;46.51
8298;BME280;4187;42.778;23.242;2022-07-29T13:21:30;95229.94;;;34.04;50.50
8298;BME280;4187;42.778;23.242;2022-07-29T13:23:57;95228.72;;;34.15;45.00
8298;BME280;4187;42.778;23.242;2022-07-29T13:26:24;95223.66;;;34.03;46.03
8298;BME280;4187;42.778;23.242;2022-07-29T13:28:50;95224.88;;;34.16;46.94
8298;BME280;4187;42.778;23.242;2022-07-29T13:31:17;95212.84;;;34.17;46.28
8298;BME280;4187;42.778;23.242;2022-07-29T13:33:44;95206.25;;;34.37;47.16
8298;BME280;4187;42.778;23.242;2022-07-29T13:36:12;95214.69;;;34.21;44.66
8298;BME280;4187;42.778;23.242;2022-07-29T13:38:39;95209.66;;;34.05;46.62
8298;BME280;4187;42.778;23.242;2022-07-29T13:41:06;95205.41;;;34.17;47.05
8298;BME280;4187;42.778;23.242;2022-07-29T13:43:33;95207.56;;;34.20;46.88